»·PEaware :: DAL2280 KDEN-KPHX

DAL2280 :: KDEN-KPHX

FLIGHT INFORMATION

Flight Status: Arrived
Operator:
Delta Air Lines
More flights by this operator :: More flights under this callsign
Pilot: Kevin M. (7)
Aircraft: BOEING 737-800
(B738)
More flights by this aircraft type
Origin: KDEN Denver Intl
United States
Destination: KPHX Phoenix Sky Harbor Intl
United States
More flights between these airports :: More routes between these airports
Route: SOLAR4 DAAYE GUP EAGUL6
File this flight plan on PilotEdge
Remarks:
Altitude:
(Current/Filed)
36,000ft
Speed:
(Current/Filed)
468kts
Departed: 24-Sep-19 08:04 AM
Arrived: 24-Sep-19 09:31 AM
Distance/Time
Traveled:
523nm/1:27
Distance/Time
To Go:
Arrived

Flight Plot

Page will automatically refresh every two minutes.

Flight plan parsing failed; only flown route is shown


Map Options




Map Legend


Flown Route
Filed Route
Departure Airport
Arrival Airport
Navaid (VOR, NDB)
Fix

Horizontal Profiles

Position Reports

Time Latitude Longitude Heading Altitude Ground
Speed
24-Sep-19 07:39 39.853340 -104.676135 0 5378ft 0kts
24-Sep-19 07:40 39.853340 -104.676135 0 5378ft 0kts
24-Sep-19 07:41 39.853340 -104.676135 0 5378ft 0kts
24-Sep-19 07:42 39.853340 -104.676135 0 5378ft 0kts
24-Sep-19 07:43 39.853340 -104.676135 0 5378ft 0kts
24-Sep-19 07:44 39.853340 -104.676135 0 5378ft 0kts
24-Sep-19 07:45 39.853340 -104.676135 0 5378ft 0kts
24-Sep-19 07:46 39.853340 -104.676135 0 5378ft 0kts
24-Sep-19 07:47 39.853340 -104.676135 0 5378ft 0kts
24-Sep-19 07:48 39.853340 -104.676135 0 5378ft 0kts
24-Sep-19 07:49 39.853340 -104.676135 0 5378ft 0kts
24-Sep-19 07:50 39.853340 -104.676135 0 5378ft 0kts
24-Sep-19 07:51 39.853340 -104.676135 0 5378ft 0kts
24-Sep-19 07:52 39.853340 -104.676135 0 5378ft 0kts
24-Sep-19 07:53 39.853340 -104.676135 0 5378ft 0kts
24-Sep-19 07:54 39.853340 -104.676135 0 5378ft 0kts
24-Sep-19 07:55 39.853340 -104.676135 0 5378ft 0kts
24-Sep-19 07:56 39.852846 -104.676067 309 5378ft 2kts
24-Sep-19 07:57 39.852788 -104.675833 269 5380ft 0kts
24-Sep-19 07:58 39.852788 -104.675833 269 5380ft 0kts
24-Sep-19 07:59 39.853022 -104.682278 280 5333ft 27kts
24-Sep-19 08:00 39.847322 -104.684104 180 5306ft 33kts
24-Sep-19 08:01 39.841839 -104.684149 180 5307ft 0kts
24-Sep-19 08:02 39.841765 -104.684149 180 5307ft 4kts
24-Sep-19 08:04 39.840753 -104.697561 269 5351ft 123kts
24-Sep-19 08:05 39.842120 -104.755465 268 6792ft 179kts
24-Sep-19 08:06 39.825930 -104.828025 251 7819ft 249kts
24-Sep-19 08:07 39.786081 -104.910879 219 10181ft 294kts
24-Sep-19 08:08 39.696904 -104.932481 168 11631ft 374kts
24-Sep-19 08:09 39.589932 -104.880640 151 13192ft 432kts
24-Sep-19 08:10 39.475782 -104.825990 175 16085ft 451kts
24-Sep-19 08:11 39.353798 -104.863674 210 18793ft 464kts
24-Sep-19 08:12 39.242997 -104.954172 221 21461ft 476kts
24-Sep-19 08:13 39.139354 -105.063528 215 24011ft 490kts
24-Sep-19 08:14 39.015515 -105.144242 208 26245ft 507kts
24-Sep-19 08:15 38.891631 -105.223484 209 30232ft 478kts
24-Sep-19 08:16 38.775415 -105.297698 208 33277ft 460kts
24-Sep-19 08:17 38.662317 -105.369719 208 35520ft 451kts
24-Sep-19 08:18 38.550554 -105.440694 208 36228ft 444kts
24-Sep-19 08:19 38.439529 -105.510902 208 36299ft 446kts
24-Sep-19 08:20 38.328663 -105.580806 208 36364ft 445kts
24-Sep-19 08:21 38.217601 -105.650601 208 36387ft 445kts
24-Sep-19 08:22 38.105951 -105.720416 208 36393ft 447kts
24-Sep-19 08:23 37.998187 -105.796721 221 36370ft 442kts
24-Sep-19 08:23 37.925693 -105.887237 226 36348ft 441kts
24-Sep-19 08:25 37.824939 -106.016050 226 36335ft 441kts
24-Sep-19 08:26 37.738604 -106.125835 226 36342ft 441kts
24-Sep-19 08:26 37.666410 -106.217341 226 36340ft 440kts
24-Sep-19 08:28 37.565331 -106.344929 226 36342ft 442kts
24-Sep-19 08:28 37.492871 -106.435998 226 36348ft 439kts
24-Sep-19 08:29 37.406126 -106.544708 226 36358ft 441kts
24-Sep-19 08:31 37.304512 -106.671492 225 36371ft 441kts
24-Sep-19 08:31 37.231692 -106.761980 225 36364ft 442kts
24-Sep-19 08:32 37.143710 -106.871047 227 36371ft 456kts
24-Sep-19 08:33 37.051642 -106.984799 228 36370ft 466kts
24-Sep-19 08:34 36.963262 -107.093502 226 36357ft 419kts
24-Sep-19 08:35 36.880752 -107.194882 226 36369ft 420kts
24-Sep-19 08:36 36.797698 -107.296654 226 36366ft 417kts
24-Sep-19 08:37 36.714189 -107.398657 226 36344ft 418kts
24-Sep-19 08:38 36.630855 -107.500158 226 36331ft 418kts
24-Sep-19 08:39 36.547498 -107.601312 226 36317ft 418kts
24-Sep-19 08:40 36.463862 -107.702407 225 36313ft 420kts
24-Sep-19 08:41 36.380187 -107.803162 226 36304ft 418kts
24-Sep-19 08:42 36.296516 -107.903612 226 36299ft 419kts
24-Sep-19 08:43 36.212747 -108.003971 226 36301ft 419kts
24-Sep-19 08:44 36.128740 -108.104298 225 36297ft 419kts
24-Sep-19 08:45 36.044925 -108.204091 226 36310ft 418kts
24-Sep-19 08:46 35.960894 -108.303850 226 36317ft 418kts
24-Sep-19 08:47 35.876640 -108.403586 225 36324ft 418kts
24-Sep-19 08:48 35.792645 -108.502716 226 36324ft 418kts
24-Sep-19 08:49 35.708431 -108.601782 226 36324ft 418kts
24-Sep-19 08:50 35.625019 -108.699511 225 36331ft 419kts
24-Sep-19 08:51 35.540507 -108.798107 225 36334ft 420kts
24-Sep-19 08:52 35.456719 -108.897341 228 36327ft 418kts
24-Sep-19 08:53 35.376639 -109.001125 228 36333ft 421kts
24-Sep-19 08:54 35.295477 -109.106096 227 36333ft 428kts
24-Sep-19 08:55 35.212728 -109.212812 226 36332ft 436kts
24-Sep-19 08:56 35.129178 -109.320249 226 36313ft 437kts
24-Sep-19 08:57 35.045276 -109.427860 226 36274ft 434kts
24-Sep-19 08:58 34.962659 -109.533403 226 36268ft 427kts
24-Sep-19 08:59 34.881297 -109.637035 225 36275ft 416kts
24-Sep-19 09:00 34.801435 -109.738461 225 36286ft 417kts
24-Sep-19 09:01 34.721731 -109.840805 229 36296ft 417kts
24-Sep-19 09:02 34.666428 -109.965436 241 36315ft 421kts
24-Sep-19 09:03 34.617790 -110.095395 242 36312ft 421kts
24-Sep-19 09:04 34.569500 -110.225570 242 36311ft 422kts
24-Sep-19 09:05 34.521357 -110.354862 242 36306ft 417kts
24-Sep-19 09:06 34.474109 -110.480681 242 36302ft 410kts
24-Sep-19 09:07 34.426575 -110.606329 242 36210ft 404kts
24-Sep-19 09:08 34.378650 -110.731438 241 34811ft 411kts
24-Sep-19 09:09 34.315405 -110.844947 225 33719ft 409kts
24-Sep-19 09:10 34.236750 -110.945704 224 32446ft 417kts
24-Sep-19 09:11 34.156379 -111.049161 223 31010ft 429kts
24-Sep-19 09:12 34.074342 -111.154859 223 28878ft 428kts
24-Sep-19 09:13 33.989504 -111.264549 223 20827ft 465kts
24-Sep-19 09:14 33.907420 -111.369973 223 17731ft 378kts
24-Sep-19 09:15 33.848765 -111.463440 234 15953ft 328kts
24-Sep-19 09:16 33.800752 -111.555644 234 14223ft 321kts
24-Sep-19 09:17 33.753398 -111.645098 234 12591ft 314kts
24-Sep-19 09:18 33.707496 -111.731253 234 11108ft 294kts
24-Sep-19 09:19 33.664842 -111.811702 234 10038ft 269kts
24-Sep-19 09:20 33.627091 -111.882858 234 10044ft 246kts
24-Sep-19 09:21 33.586738 -111.958480 235 7369ft 296kts
24-Sep-19 09:22 33.558448 -112.046476 250 6206ft 273kts
24-Sep-19 09:23 33.534302 -112.128208 250 5216ft 246kts
24-Sep-19 09:24 33.511785 -112.202312 250 4257ft 226kts
24-Sep-19 09:25 33.462008 -112.226382 180 3276ft 201kts
24-Sep-19 09:26 33.430258 -112.181189 93 2678ft 189kts
24-Sep-19 09:27 33.429911 -112.118823 92 2242ft 179kts
24-Sep-19 09:28 33.429061 -112.063762 90 1656ft 152kts
24-Sep-19 09:29 33.428867 -112.014681 90 1121ft 107kts
24-Sep-19 09:30 33.429959 -112.003499 74 1123ft 2kts
24-Sep-19 09:31 33.432913 -112.005108 267 1129ft 22kts
24-Sep-19 09:32 33.433564 -112.008252 320 1133ft 0kts

Navigation Log

Ident Type
Flight plan parsing failed, navigation log unavailable